Guadalajara Don Miguel, Mexico

10:53 PM CDT on September 04, 2015 (GMT -0500)
Don Miguel Hidalgo International | | Change Station
CLOSE
Current Station
Airport
Location: Guadalajara Don Miguel,
Elevation: 5013 ft
Nearby Weather Stations

Elev 5013 ft 20.52 °N, 103.31 °W | Updated 1 hour ago

Mostly Cloudy
Mostly Cloudy
68 °F
Feels Like 68 °F
N
5
Wind Variable Wind from SE

Today
High -- | Low -- °F
--% Chance of Precip.
Yesterday
High -- | Low -- °F
Precip. -- in
7:38 AM 8:06 PM
Waning Gibbous, 53% visible
Pressure 29.81 in
Visibility 10.0 miles
Clouds Few 3000 ft
Mostly Cloudy 9000 ft
Mostly Cloudy 30000 ft
Dew Point 59 °F
Humidity 73%
Rainfall 5.76 in
Snow Depth Not available.
UV 0 out of 12
Pollen Not available.
Air Quality Not available.
Flu Activity Not available.
METAR MMGL 050249Z 14004KT 10SM FEW030CB BKN090 BKN300 20/15 A3011 RMK SLP095 52017 903 8/363 FQT LTG W
Pressure 29.81 in
Visibility 10.0 miles
Clouds Few 3000 ft
Mostly Cloudy 9000 ft
Mostly Cloudy 30000 ft
Dew Point 59 °F
Humidity 73%
Rainfall 5.76 in
Snow Depth Not available.
UV 0 out of 12
Pollen Not available.
Air Quality Not available.
Flu Activity Not available.
METAR MMGL 050249Z 14004KT 10SM FEW030CB BKN090 BKN300 20/15 A3011 RMK SLP095 52017 903 8/363 FQT LTG W

10-Day Weather Forecast

×

Almanac

Astronomy

Sep. 04, 2015 Rise Set
Actual Time
Civil Twilight
Nautical Twilight
Astronomical Twilight
Moon
Length of Visible Light
Length of Day
Tomorrow will be .
, % of the Moon is Illuminated

Today's Extremes

Country Highs Country Lows

Community

WunderPhotos

Upload Photos

1,852,408 photos uploaded!

WunderBlogs® & News

Nearby

Air Quality

  Air Quality AQ Index Pollutant
Not available.

Snow Depth

Station Depth Elevation

Earthquake Activity

City Distance Mag. Time & Date
Minimum magnitude displayed is 2.5.

Coastal Water Temperatures

Place Temperature

Stations

Nearby Weather Stations

Station Location Temp. Windchill Dew Point Humidity Wind Precip. Elev Updated Type